OSOK1: Oswego hwy 160

                                SHEF ID:       OSOK1     Oswego hwy 160
STATION TYPE:

PRECIP STAGE RIV-FLOW VOLTAGE BAT-LOAD
in ft cfs volt volt
Ccp-Rev Ccp-Rev Ccp-Rev Ccp-Rev Ccp-Rev
(America/Chicago)
02/20 00:00 0.00 13.77 4641 12.72 12.45
02/20 01:00 0.00 13.81 4691 12.70 12.43
02/20 02:00 0.00 13.84 4728 12.68 12.40
02/20 03:00 0.00 13.85 4741 12.66 12.38
02/20 04:00 0.00 13.87 4766 12.64 12.36
02/20 05:00 0.00 13.89 4791 12.62 12.34
02/20 06:00 0.00 13.89 4791 12.60 12.31
02/20 07:00 0.00 13.91 4816 12.58 12.29
02/20 08:00 0.00 13.91 4816 12.91 12.45
02/20 09:00 0.00 13.91 4816 14.84 13.54
02/20 10:00 0.00 13.92 4829 14.65 13.64
02/20 11:00 0.00 13.91 4816 14.56 13.51
02/20 12:00 0.00 13.91 4816 14.12 13.36
02/20 13:00 0.00 13.92 4829 14.12 13.30
02/20 14:00 0.00 13.92 4829 13.94 13.30
02/20 15:00 0.00 13.91 4816 13.82 13.22
02/20 16:00 0.00 13.91 4816 13.87 13.16
02/20 17:00 0.00 13.90 4804 14.06 13.17
02/20 18:00 0.00 13.91 4816 13.33 13.13
02/20 19:00 0.00 13.90 4804 13.06 12.84
02/20 20:00 0.00 13.90 4804 12.91 12.67
02/20 21:00 0.00 13.90 4804 12.83 12.57
02/20 22:00 0.00 13.89 4791 12.79 12.52
02/20 23:00 0.00 13.90 4804 12.76 12.48
Data processed at Sat 21Feb2026 05:50 GMT

NOTICE: If you are parsing this page

Please convert to using our Data API. Starting early 2026 we will be migrating to: https://water.usace.army.mil with modern pages rendered in JavaScript. When this migration completes you will no longer be able to scrape this page! CWMSDataAPI (CDA)

Timeseries IDs (TSIDs)

TSIDs used from left to right in the data table
OSWN.Precip-Inc.Total.1Hour.1Hour.Ccp-Rev
OSWN.Stage.Inst.1Hour.0.Ccp-Rev
OSWN.Flow.Inst.1Hour.0.Ccp-Rev
OSWN.Volt-Battery.Inst.1Hour.0.Ccp-Rev
OSWN.Volt-Battery Load.Inst.1Hour.0.Ccp-Rev

                            

All information presented herein is the property of the government of the United States of America and may be revised or deleted at any time without prior notice. Dissemination of this information without the expressed written consent of the Public Affairs Office, Tulsa District U.S. Army Corps of Engineers is strictly prohibited. These data are gathered electronically and, as presented, have NOT undergone any form of quality control. These data are NOT guaranteed to be valid or correct.